createdAt,value
2022-07-25T00:01:54.577Z,95.20
2022-07-25T00:04:21.529Z,95.20
2022-07-25T00:06:49.261Z,95.30
2022-07-25T00:09:16.285Z,95.50
2022-07-25T00:11:43.118Z,95.50
2022-07-25T00:14:10.456Z,95.50
2022-07-25T00:16:37.533Z,95.30
2022-07-25T00:19:04.402Z,95.40
2022-07-25T00:21:31.287Z,95.40
2022-07-25T00:23:58.253Z,95.40
2022-07-25T00:26:25.069Z,95.40
2022-07-25T00:28:51.848Z,95.50
2022-07-25T00:31:18.893Z,95.70
2022-07-25T00:33:45.776Z,95.70
2022-07-25T00:36:13.432Z,95.80
2022-07-25T00:38:40.274Z,95.90
2022-07-25T00:41:07.094Z,96.00
2022-07-25T00:43:33.878Z,96.20
2022-07-25T00:46:00.767Z,96.30
2022-07-25T00:48:29.163Z,96.40
2022-07-25T00:50:56.788Z,96.40
2022-07-25T00:53:25.311Z,96.50
2022-07-25T00:55:52.812Z,96.70
2022-07-25T00:58:19.695Z,96.60
2022-07-25T01:00:47.386Z,96.60
2022-07-25T01:03:14.354Z,96.70
2022-07-25T01:05:41.283Z,96.70
2022-07-25T01:08:08.908Z,96.80
2022-07-25T01:10:36.431Z,96.80
2022-07-25T01:13:03.423Z,96.70
2022-07-25T01:15:30.460Z,96.70
2022-07-25T01:17:57.359Z,96.70
2022-07-25T01:20:25.848Z,96.60
2022-07-25T01:22:52.955Z,96.50
2022-07-25T01:25:20.550Z,96.40
2022-07-25T01:27:52.951Z,96.50
2022-07-25T01:30:23.659Z,96.50
2022-07-25T01:32:50.929Z,96.40
2022-07-25T01:35:17.851Z,96.40
2022-07-25T01:37:45.508Z,96.50
2022-07-25T01:40:13.070Z,96.50
2022-07-25T01:42:40.076Z,96.50
2022-07-25T01:45:07.691Z,96.50
2022-07-25T01:47:34.483Z,96.50
2022-07-25T01:50:01.379Z,96.60
2022-07-25T01:52:28.731Z,96.60
2022-07-25T01:54:55.560Z,96.60
2022-07-25T01:57:24.368Z,96.70
2022-07-25T01:59:57.946Z,96.60
2022-07-25T02:02:24.700Z,96.70
2022-07-25T02:04:51.663Z,96.80
2022-07-25T02:07:18.478Z,96.80
2022-07-25T02:09:45.252Z,96.90
2022-07-25T02:12:12.223Z,97.00
2022-07-25T02:14:39.159Z,97.10
2022-07-25T02:17:07.133Z,97.10
2022-07-25T02:19:34.361Z,97.20
2022-07-25T02:22:01.319Z,97.30
2022-07-25T02:24:28.309Z,97.50
2022-07-25T02:26:55.116Z,97.60
2022-07-25T02:29:22.319Z,97.70
2022-07-25T02:31:49.341Z,97.70
2022-07-25T02:34:16.556Z,97.80
2022-07-25T02:36:43.493Z,97.80
2022-07-25T02:39:10.339Z,97.90
2022-07-25T02:41:37.206Z,97.80
2022-07-25T02:44:05.515Z,97.70
2022-07-25T02:46:33.130Z,97.70
2022-07-25T02:49:00.127Z,97.90
2022-07-25T02:51:27.008Z,97.90
2022-07-25T02:53:57.582Z,97.80
2022-07-25T02:56:26.217Z,97.70
2022-07-25T02:58:57.352Z,97.80
2022-07-25T03:01:24.380Z,97.80
2022-07-25T03:03:51.370Z,98.00
2022-07-25T03:06:18.226Z,97.90
2022-07-25T03:08:45.115Z,97.90
2022-07-25T03:11:13.276Z,98.00
2022-07-25T03:13:40.415Z,98.00
2022-07-25T03:16:08.050Z,97.90
2022-07-25T03:18:34.821Z,98.10
2022-07-25T03:21:01.660Z,98.00
2022-07-25T03:23:28.630Z,98.00
2022-07-25T03:25:56.146Z,98.10
2022-07-25T03:28:24.668Z,98.20
2022-07-25T03:30:52.212Z,98.20
2022-07-25T03:33:19.217Z,98.10
2022-07-25T03:35:46.222Z,98.20
2022-07-25T03:38:12.986Z,98.30
2022-07-25T03:40:39.826Z,98.40
2022-07-25T03:43:06.823Z,98.70
2022-07-25T03:45:33.686Z,98.40
2022-07-25T03:48:00.517Z,98.40
2022-07-25T03:50:27.354Z,98.40
2022-07-25T03:52:54.130Z,98.30
2022-07-25T03:55:21.024Z,98.40
2022-07-25T03:57:47.778Z,98.50
2022-07-25T04:00:14.820Z,98.60
2022-07-25T04:02:41.762Z,98.60
2022-07-25T04:05:08.948Z,98.60
2022-07-25T04:07:37.004Z,98.80
2022-07-25T04:10:05.998Z,99.00
2022-07-25T04:12:32.959Z,99.10
2022-07-25T04:15:00.076Z,99.10
2022-07-25T04:17:26.874Z,99.10
2022-07-25T04:19:53.822Z,99.10
2022-07-25T04:22:20.710Z,99.20
2022-07-25T04:24:47.494Z,99.20
2022-07-25T04:27:14.267Z,99.20
2022-07-25T04:29:41.086Z,99.20
2022-07-25T04:32:08.083Z,99.20
2022-07-25T04:34:34.956Z,99.20
2022-07-25T04:37:01.789Z,99.20
2022-07-25T04:39:28.700Z,99.30
2022-07-25T04:41:55.454Z,99.30
2022-07-25T04:44:22.255Z,99.30
2022-07-25T04:46:49.025Z,99.30
2022-07-25T04:49:15.881Z,99.40
2022-07-25T04:51:42.772Z,99.40
2022-07-25T04:54:10.166Z,99.40
2022-07-25T04:56:37.207Z,99.50
2022-07-25T04:59:06.792Z,99.50
2022-07-25T05:01:34.940Z,99.50
2022-07-25T05:04:01.912Z,99.60
2022-07-25T05:06:28.823Z,99.50
2022-07-25T05:08:55.788Z,99.60
2022-07-25T05:11:22.617Z,99.60
2022-07-25T05:13:49.469Z,99.60
2022-07-25T05:16:16.797Z,99.60
2022-07-25T05:18:43.599Z,99.60
2022-07-25T05:21:14.198Z,99.50
2022-07-25T05:23:41.175Z,99.60
2022-07-25T05:26:08.025Z,99.50
2022-07-25T05:28:46.726Z,99.50
2022-07-25T05:31:25.722Z,99.80
2022-07-25T05:34:09.868Z,99.60
2022-07-25T05:39:30.709Z,99.10
2022-07-25T05:41:57.615Z,98.60
2022-07-25T05:44:24.558Z,98.40
2022-07-25T05:46:51.567Z,98.20
2022-07-25T05:49:18.649Z,98.00
2022-07-25T05:51:45.659Z,97.60
2022-07-25T05:54:12.611Z,97.60
2022-07-25T05:56:39.505Z,97.30
2022-07-25T05:59:06.545Z,97.30
2022-07-25T06:01:33.524Z,97.30
2022-07-25T06:04:00.443Z,97.20
2022-07-25T06:06:27.396Z,97.00
2022-07-25T06:08:54.244Z,97.00
2022-07-25T06:11:21.297Z,96.90
2022-07-25T06:13:48.149Z,96.90
2022-07-25T06:16:15.400Z,96.80
2022-07-25T06:18:42.377Z,96.50
2022-07-25T06:21:09.204Z,96.20
2022-07-25T06:23:36.097Z,96.20
2022-07-25T06:26:03.021Z,95.90
2022-07-25T06:28:30.082Z,95.90
2022-07-25T06:30:57.019Z,95.80
2022-07-25T06:33:24.066Z,95.90
2022-07-25T06:35:51.093Z,95.90
2022-07-25T06:38:17.970Z,96.00
2022-07-25T06:40:44.962Z,95.90
2022-07-25T06:43:11.929Z,96.00
2022-07-25T06:45:38.896Z,96.00
2022-07-25T06:48:06.105Z,96.10
2022-07-25T06:50:42.236Z,96.10
2022-07-25T06:53:09.250Z,96.00
2022-07-25T06:55:36.246Z,96.00
2022-07-25T06:58:03.579Z,96.00
2022-07-25T07:00:30.727Z,95.80
2022-07-25T07:03:01.434Z,95.90
2022-07-25T07:05:31.064Z,96.10
2022-07-25T07:07:58.725Z,96.30
2022-07-25T07:10:34.992Z,96.30
2022-07-25T07:13:13.456Z,96.10
2022-07-25T07:15:45.889Z,96.00
2022-07-25T07:18:13.160Z,95.90
2022-07-25T07:20:40.164Z,95.80
2022-07-25T07:23:07.162Z,95.90
2022-07-25T07:25:36.408Z,95.80
2022-07-25T07:28:04.290Z,95.80
2022-07-25T07:30:58.600Z,95.80
2022-07-25T07:33:23.125Z,95.80
2022-07-25T07:36:02.546Z,95.60
2022-07-25T07:38:30.493Z,95.70
2022-07-25T07:40:57.960Z,95.70
2022-07-25T07:43:29.612Z,95.70
2022-07-25T07:46:02.725Z,95.90
2022-07-25T07:48:31.138Z,96.00
2022-07-25T07:51:02.030Z,96.00
2022-07-25T07:53:48.093Z,95.70
2022-07-25T07:56:18.074Z,95.50
2022-07-25T07:58:45.482Z,95.40
2022-07-25T08:01:12.402Z,95.60
2022-07-25T08:03:39.365Z,96.00
2022-07-25T08:06:06.548Z,95.40
2022-07-25T08:08:33.585Z,95.50
2022-07-25T08:11:00.668Z,94.90
2022-07-25T08:13:30.716Z,95.10
2022-07-25T08:15:59.471Z,95.20
2022-07-25T08:18:30.008Z,95.30
2022-07-25T08:20:57.432Z,95.50
2022-07-25T08:23:27.929Z,95.40
2022-07-25T08:25:55.167Z,95.20
2022-07-25T08:28:22.088Z,94.90
2022-07-25T08:30:49.370Z,95.00
2022-07-25T08:33:16.561Z,94.60
2022-07-25T08:35:54.869Z,94.40
2022-07-25T08:38:23.856Z,94.20
2022-07-25T08:40:51.415Z,94.40
2022-07-25T08:43:18.854Z,93.90
2022-07-25T08:45:48.068Z,93.30
2022-07-25T08:48:18.585Z,93.40
2022-07-25T08:50:46.756Z,93.50
2022-07-25T08:53:35.100Z,93.40
2022-07-25T08:56:12.160Z,93.60
2022-07-25T08:58:44.536Z,93.00
2022-07-25T09:01:12.844Z,92.50
2022-07-25T09:03:40.468Z,92.50
2022-07-25T09:06:21.057Z,92.60
2022-07-25T09:08:55.987Z,92.60
2022-07-25T09:11:37.511Z,92.70
2022-07-25T09:14:11.404Z,92.90
2022-07-25T09:16:44.611Z,92.40
2022-07-25T09:19:21.919Z,92.50
2022-07-25T09:22:18.128Z,92.60
2022-07-25T09:24:45.837Z,92.90
2022-07-25T09:27:13.161Z,92.90
2022-07-25T09:29:42.712Z,92.90
2022-07-25T09:32:22.087Z,92.40
2022-07-25T09:34:50.454Z,92.70
2022-07-25T09:37:19.713Z,92.60
2022-07-25T09:39:49.724Z,92.40
2022-07-25T09:42:19.893Z,92.20
2022-07-25T09:45:10.011Z,92.50
2022-07-25T09:47:52.089Z,92.20
2022-07-25T09:50:20.608Z,92.30
2022-07-25T09:52:47.681Z,91.90
2022-07-25T09:55:15.750Z,91.40
2022-07-25T09:57:45.125Z,90.90
2022-07-25T10:00:19.590Z,90.60
2022-07-25T10:02:52.423Z,90.50
2022-07-25T10:05:44.413Z,88.30
2022-07-25T10:08:12.406Z,88.50
2022-07-25T10:10:41.524Z,88.90
2022-07-25T10:13:18.058Z,88.60
2022-07-25T10:15:50.747Z,86.00
2022-07-25T10:18:26.406Z,88.90
2022-07-25T10:21:24.983Z,84.60
2022-07-25T10:24:02.655Z,80.60
2022-07-25T10:26:30.551Z,77.90
2022-07-25T10:28:58.528Z,77.10
2022-07-25T10:31:41.564Z,77.30
2022-07-25T10:34:11.462Z,80.00
2022-07-25T10:36:48.434Z,77.90
2022-07-25T10:39:19.433Z,76.30
2022-07-25T10:41:55.801Z,74.10
2022-07-25T10:44:23.129Z,74.60
2022-07-25T10:46:50.381Z,76.30
2022-07-25T10:49:31.939Z,74.20
2022-07-25T10:52:06.799Z,74.60
2022-07-25T10:54:38.757Z,75.30
2022-07-25T10:57:13.862Z,74.40
2022-07-25T10:59:41.230Z,72.10
2022-07-25T11:02:19.396Z,73.10
2022-07-25T11:05:06.743Z,73.70
2022-07-25T11:07:36.403Z,72.80
2022-07-25T11:10:06.089Z,72.30
2022-07-25T11:12:33.532Z,72.80
2022-07-25T11:15:05.505Z,74.20
2022-07-25T11:17:32.582Z,74.50
2022-07-25T11:20:06.148Z,71.60
2022-07-25T11:22:33.345Z,71.30
2022-07-25T11:25:01.380Z,71.50
2022-07-25T11:27:33.693Z,73.70
2022-07-25T11:30:21.830Z,73.00
2022-07-25T11:32:54.270Z,71.70
2022-07-25T11:35:25.155Z,70.80
2022-07-25T11:37:53.598Z,69.80
2022-07-25T11:40:22.747Z,70.20
2022-07-25T11:42:55.462Z,70.10
2022-07-25T11:45:33.837Z,69.60
2022-07-25T11:48:09.777Z,68.40
2022-07-25T11:50:39.518Z,69.00
2022-07-25T11:53:09.422Z,69.00
2022-07-25T11:55:41.011Z,67.70
2022-07-25T11:58:13.898Z,67.50
2022-07-25T12:00:43.065Z,69.10
2022-07-25T12:03:19.970Z,68.00
2022-07-25T12:05:48.665Z,65.90
2022-07-25T12:08:18.379Z,67.10
2022-07-25T12:10:51.543Z,67.30
2022-07-25T12:13:30.070Z,66.80
2022-07-25T12:15:58.219Z,66.70
2022-07-25T12:18:25.543Z,67.00
2022-07-25T12:20:53.329Z,67.60
2022-07-25T12:23:23.952Z,65.40
2022-07-25T12:25:51.089Z,64.00
2022-07-25T12:28:18.131Z,63.50
2022-07-25T12:30:54.324Z,63.10
2022-07-25T12:33:23.691Z,63.50
2022-07-25T12:35:51.108Z,62.90
2022-07-25T12:38:18.150Z,63.00
2022-07-25T12:40:45.791Z,63.60
2022-07-25T12:43:15.320Z,64.60
2022-07-25T12:45:42.720Z,63.10
2022-07-25T12:48:10.339Z,63.70
2022-07-25T12:50:37.392Z,64.30
2022-07-25T12:53:04.628Z,64.80
2022-07-25T12:55:31.873Z,64.80
2022-07-25T12:57:59.225Z,66.00
2022-07-25T13:00:26.450Z,66.70
2022-07-25T13:02:56.180Z,67.30
2022-07-25T13:05:25.637Z,67.20
2022-07-25T13:07:52.759Z,67.30
2022-07-25T13:10:22.907Z,68.70
2022-07-25T13:12:49.981Z,68.70
2022-07-25T13:15:20.711Z,67.40
2022-07-25T13:17:47.806Z,67.80
2022-07-25T13:20:15.750Z,66.20
2022-07-25T13:22:42.872Z,66.60
2022-07-25T13:25:09.823Z,66.60
2022-07-25T13:27:37.833Z,67.00
2022-07-25T13:30:06.824Z,66.90
2022-07-25T13:32:34.964Z,66.90
2022-07-25T13:35:01.991Z,67.20
2022-07-25T13:37:29.025Z,68.90
2022-07-25T13:39:56.024Z,68.00
2022-07-25T13:42:23.004Z,68.00
2022-07-25T13:44:50.039Z,68.00
2022-07-25T13:47:19.755Z,66.30
2022-07-25T13:49:46.851Z,67.20
2022-07-25T13:52:13.865Z,67.80
2022-07-25T13:54:40.876Z,68.90
2022-07-25T13:57:09.655Z,68.10
2022-07-25T13:59:36.920Z,67.40
2022-07-25T14:02:06.541Z,66.60
2022-07-25T14:04:33.586Z,66.70
2022-07-25T14:07:00.952Z,66.70
2022-07-25T14:09:35.522Z,67.40
2022-07-25T14:12:04.362Z,67.70
2022-07-25T14:14:31.313Z,67.70
2022-07-25T14:16:58.294Z,67.90
2022-07-25T14:19:25.622Z,68.00
2022-07-25T14:21:52.707Z,68.20
2022-07-25T14:24:19.667Z,68.40
2022-07-25T14:26:46.745Z,68.50
2022-07-25T14:29:14.555Z,69.10
2022-07-25T14:31:41.658Z,69.70
2022-07-25T14:34:08.794Z,69.70
2022-07-25T14:36:36.940Z,69.10
2022-07-25T14:39:05.252Z,69.70
2022-07-25T14:41:32.893Z,69.70
2022-07-25T14:43:59.967Z,69.90
2022-07-25T14:46:27.672Z,69.60
2022-07-25T14:48:54.681Z,69.90
2022-07-25T14:51:21.968Z,69.20
2022-07-25T14:53:53.112Z,68.50
2022-07-25T14:56:20.756Z,69.00
2022-07-25T14:58:50.365Z,68.70
2022-07-25T15:01:19.117Z,68.50
2022-07-25T15:03:50.599Z,67.60
2022-07-25T15:06:17.769Z,67.40
2022-07-25T15:08:45.471Z,67.40
2022-07-25T15:11:15.464Z,67.00
2022-07-25T15:13:42.474Z,66.90
2022-07-25T15:16:10.071Z,67.30
2022-07-25T15:18:58.585Z,68.00
2022-07-25T15:21:26.589Z,67.90
2022-07-25T15:24:00.978Z,67.10
2022-07-25T15:26:28.309Z,66.10
2022-07-25T15:28:56.408Z,65.30
2022-07-25T15:31:24.764Z,65.20
2022-07-25T15:33:53.756Z,65.30
2022-07-25T15:36:25.731Z,65.10
2022-07-25T15:38:55.964Z,64.70
2022-07-25T15:41:23.364Z,64.80
2022-07-25T15:43:50.311Z,64.40
2022-07-25T15:46:17.454Z,64.40
2022-07-25T15:48:44.950Z,66.60
2022-07-25T15:51:12.076Z,68.20
2022-07-25T15:57:41.246Z,70.70
2022-07-25T16:00:09.618Z,71.80
2022-07-25T16:02:36.623Z,72.70
2022-07-25T16:05:04.215Z,73.00
2022-07-25T16:07:31.513Z,73.40
2022-07-25T16:09:59.340Z,73.90
2022-07-25T16:12:28.757Z,74.00
2022-07-25T16:14:57.049Z,74.20
2022-07-25T16:17:25.988Z,74.40
2022-07-25T16:19:55.716Z,73.60
2022-07-25T16:22:23.165Z,72.70
2022-07-25T16:24:50.485Z,72.70
2022-07-25T16:27:18.540Z,72.90
2022-07-25T16:29:47.857Z,73.80
2022-07-25T16:32:14.904Z,75.10
2022-07-25T16:34:47.810Z,76.00
2022-07-25T16:37:14.786Z,78.70
2022-07-25T16:39:41.889Z,76.30
2022-07-25T16:42:09.354Z,75.90
2022-07-25T16:44:36.272Z,75.50
2022-07-25T16:47:03.647Z,76.10
2022-07-25T16:49:30.917Z,76.00
2022-07-25T16:51:57.964Z,75.50
2022-07-25T16:54:25.163Z,75.20
2022-07-25T16:56:59.400Z,74.90
2022-07-25T16:59:26.990Z,74.30
2022-07-25T17:01:55.116Z,73.90
2022-07-25T17:04:23.825Z,73.30
2022-07-25T17:06:51.618Z,72.40
2022-07-25T17:09:19.666Z,71.70
2022-07-25T17:11:48.536Z,71.50
2022-07-25T17:14:30.327Z,71.40
2022-07-25T17:17:07.051Z,71.50
2022-07-25T17:19:47.915Z,70.90
2022-07-25T17:22:24.023Z,70.70
2022-07-25T17:24:55.596Z,70.80
2022-07-25T17:27:28.740Z,70.90
2022-07-25T17:30:01.095Z,70.70
2022-07-25T17:32:32.881Z,70.60
2022-07-25T17:35:14.483Z,70.30
2022-07-25T17:48:29.655Z,71.80
2022-07-25T17:50:58.622Z,71.90
2022-07-25T17:53:28.552Z,72.30
2022-07-25T17:55:57.469Z,72.50
2022-07-25T17:58:24.343Z,72.90
2022-07-25T18:00:51.131Z,73.90
2022-07-25T18:03:21.754Z,74.10
2022-07-25T18:05:48.772Z,74.20
2022-07-25T18:08:15.681Z,74.20
2022-07-25T18:10:42.644Z,74.30
2022-07-25T18:13:11.359Z,74.50
2022-07-25T18:16:32.185Z,74.90
2022-07-25T18:21:53.431Z,76.10
2022-07-25T18:28:44.411Z,76.80
2022-07-25T18:32:01.754Z,77.80
2022-07-25T18:35:18.001Z,77.80
2022-07-25T18:37:45.030Z,78.10
2022-07-25T18:44:45.898Z,78.50
2022-07-25T18:47:28.965Z,78.70
2022-07-25T18:55:09.166Z,78.40
2022-07-25T19:16:22.450Z,78.00
2022-07-25T19:24:38.597Z,78.00
2022-07-25T19:38:02.622Z,78.80
2022-07-25T19:40:31.894Z,78.80
2022-07-25T19:43:03.498Z,78.70
2022-07-25T19:45:32.865Z,78.90
2022-07-25T19:48:51.108Z,78.70
2022-07-25T19:56:19.074Z,79.00
2022-07-25T20:19:37.691Z,79.20
2022-07-25T20:22:24.092Z,79.30
2022-07-25T20:25:09.185Z,79.60
2022-07-25T20:48:28.629Z,80.30
2022-07-25T20:51:59.057Z,79.60
2022-07-25T20:55:00.207Z,79.10
2022-07-25T20:57:35.057Z,78.80
2022-07-25T21:00:16.856Z,78.60
2022-07-25T21:06:58.193Z,78.20
2022-07-25T21:09:32.510Z,78.10
2022-07-25T21:13:21.114Z,78.40
2022-07-25T21:16:42.396Z,78.40
2022-07-25T21:19:31.474Z,78.70
2022-07-25T21:22:09.845Z,78.90
2022-07-25T21:24:49.427Z,79.00
2022-07-25T21:34:26.484Z,79.30
2022-07-25T21:37:17.583Z,79.50
2022-07-25T21:40:11.855Z,79.50
2022-07-25T21:42:38.662Z,79.70
2022-07-25T21:45:06.124Z,80.00
2022-07-25T21:47:32.889Z,80.00
2022-07-25T21:50:24.335Z,80.10
2022-07-25T21:52:52.968Z,80.50
2022-07-25T21:55:20.991Z,80.60
2022-07-25T21:57:48.277Z,80.80
2022-07-25T22:00:15.646Z,81.80
2022-07-25T22:02:43.851Z,81.30
2022-07-25T22:05:12.073Z,81.40
2022-07-25T22:07:39.315Z,81.50
2022-07-25T22:10:08.734Z,81.80
2022-07-25T22:12:36.737Z,81.80
2022-07-25T22:15:05.555Z,82.10
2022-07-25T22:17:49.310Z,82.20
2022-07-25T22:20:20.404Z,82.40
2022-07-25T22:22:48.590Z,82.60
2022-07-25T22:25:16.322Z,82.70
2022-07-25T22:27:43.839Z,82.80
2022-07-25T22:30:16.424Z,82.90
2022-07-25T22:32:45.064Z,82.90
2022-07-25T22:35:12.944Z,82.90
2022-07-25T22:37:39.843Z,83.10
2022-07-25T22:40:07.164Z,83.30
2022-07-25T22:42:33.991Z,83.50
2022-07-25T22:45:00.738Z,83.60
2022-07-25T22:47:27.551Z,83.70
2022-07-25T22:49:54.301Z,83.70
2022-07-25T22:52:21.093Z,83.70
2022-07-25T22:54:47.882Z,83.80
2022-07-25T22:57:14.708Z,84.80
2022-07-25T22:59:41.772Z,84.30
2022-07-25T23:02:08.611Z,84.50
2022-07-25T23:04:35.407Z,85.00
2022-07-25T23:07:02.214Z,85.00
2022-07-25T23:09:33.798Z,85.10
2022-07-25T23:12:04.449Z,85.20
2022-07-25T23:14:31.309Z,86.20
2022-07-25T23:17:16.793Z,85.70
2022-07-25T23:19:52.253Z,86.10
2022-07-25T23:22:20.805Z,86.60
2022-07-25T23:24:47.726Z,86.80
2022-07-25T23:27:15.066Z,87.10
2022-07-25T23:29:41.969Z,87.20
2022-07-25T23:32:09.311Z,87.20
2022-07-25T23:34:36.846Z,87.20
2022-07-25T23:37:04.202Z,87.00
2022-07-25T23:39:31.843Z,86.90
2022-07-25T23:41:59.797Z,87.00
2022-07-25T23:44:26.924Z,87.00
2022-07-25T23:46:56.638Z,87.10
2022-07-25T23:49:24.201Z,87.10
2022-07-25T23:51:51.194Z,87.20
2022-07-25T23:54:18.087Z,87.40
2022-07-25T23:56:44.922Z,87.70
2022-07-25T23:59:11.827Z,87.90
